Time;durP1;ratioP1;P1;durP2;ratioP2;P2;SDS_P1;SDS_P2;PMS_P1;PMS_P2;Temp;Humidity;BMP_temperature;BMP_pressure;BME280_temperature;BME280_humidity;BME280_pressure;Samples;Min_cycle;Max_cycle;Signal;HPM_P1;HPM_P2
2023/08/05 00:01:32;;;;;;;6.55;4.18;;;14.60;67.50;;;;;;5069844;28;20021;-66
2023/08/05 00:04:00;;;;;;;7.78;4.00;;;14.60;67.20;;;;;;5069853;28;20440;-66
2023/08/05 00:06:27;;;;;;;5.78;4.50;;;14.60;67.40;;;;;;5069592;28;20060;-66
2023/08/05 00:08:55;;;;;;;7.45;3.80;;;14.70;67.30;;;;;;5054252;28;20017;-67
2023/08/05 00:11:22;;;;;;;8.48;4.43;;;15.00;66.90;;;;;;5069599;28;20040;-66
2023/08/05 00:13:50;;;;;;;7.93;4.65;;;15.10;65.00;;;;;;5069550;28;20021;-66
2023/08/05 00:16:17;;;;;;;5.88;4.05;;;15.30;64.40;;;;;;5054027;28;20418;-66
2023/08/05 00:18:45;;;;;;;6.97;3.67;;;15.40;64.20;;;;;;5053823;28;20091;-66
2023/08/05 00:21:12;;;;;;;6.47;4.00;;;15.60;63.80;;;;;;5054089;28;20346;-67
2023/08/05 00:23:40;;;;;;;7.68;3.92;;;15.80;63.60;;;;;;5069425;28;20115;-67
2023/08/05 00:26:07;;;;;;;6.28;4.18;;;16.00;63.30;;;;;;5069500;28;20439;-67
2023/08/05 00:28:34;;;;;;;7.50;4.18;;;16.10;62.40;;;;;;5053668;28;20048;-67
2023/08/05 00:31:07;;;;;;;6.60;4.05;;;16.10;61.60;;;;;;5069376;28;20040;-67
2023/08/05 00:33:35;;;;;;;6.78;4.20;;;16.30;61.10;;;;;;5069289;28;20036;-68
2023/08/05 00:36:02;;;;;;;6.78;4.88;;;16.40;60.70;;;;;;5053563;28;20029;-67
2023/08/05 00:38:30;;;;;;;7.63;4.18;;;16.50;61.40;;;;;;5053684;28;20017;-67
2023/08/05 00:40:58;;;;;;;7.53;4.65;;;16.70;61.40;;;;;;5069326;28;20117;-68
2023/08/05 00:43:25;;;;;;;8.05;4.30;;;16.90;60.60;;;;;;5054830;28;20016;-67
2023/08/05 00:45:53;;;;;;;7.75;4.72;;;17.00;60.30;;;;;;5072763;28;20032;-67
2023/08/05 00:48:22;;;;;;;6.07;3.63;;;17.00;59.90;;;;;;5057160;28;20020;-67
2023/08/05 00:50:49;;;;;;;6.75;4.05;;;17.10;59.50;;;;;;5072149;28;20040;-68
2023/08/05 00:53:17;;;;;;;6.32;4.18;;;17.10;59.60;;;;;;5072202;28;20100;-67
2023/08/05 00:55:46;;;;;;;9.80;5.88;;;17.30;59.50;;;;;;5056167;28;20029;-67
2023/08/05 00:58:13;;;;;;;9.38;5.38;;;17.40;59.10;;;;;;5072752;28;20111;-68
2023/08/05 01:00:41;;;;;;;6.45;4.05;;;17.50;59.00;;;;;;5072664;28;20025;-68
2023/08/05 01:03:08;;;;;;;16.75;9.45;;;17.60;58.70;;;;;;5057139;28;20354;-68
2023/08/05 01:05:37;;;;;;;6.60;4.25;;;17.70;58.10;;;;;;5072644;28;20079;-67
2023/08/05 01:08:07;;;;;;;5.60;3.30;;;17.80;57.50;;;;;;5057093;28;20391;-64
2023/08/05 01:10:35;;;;;;;8.10;5.38;;;17.70;57.70;;;;;;5072763;28;20336;-64
2023/08/05 01:13:03;;;;;;;11.38;5.45;;;17.70;57.30;;;;;;5072649;28;20440;-64
2023/08/05 01:15:30;;;;;;;5.53;3.50;;;17.70;56.90;;;;;;5057130;28;20032;-64
2023/08/05 01:17:58;;;;;;;6.32;3.75;;;17.60;57.50;;;;;;5056728;28;20024;-63
2023/08/05 01:20:32;;;;;;;3.83;3.20;;;17.60;57.60;;;;;;5072583;28;20029;-64
2023/08/05 01:23:25;;;;;;;5.15;3.40;;;17.70;57.20;;;;;;5072463;28;20028;-64
2023/08/05 01:25:53;;;;;;;6.28;3.28;;;17.50;57.20;;;;;;5056786;28;20021;-64
2023/08/05 01:28:21;;;;;;;6.15;3.20;;;17.50;57.50;;;;;;5056594;28;20064;-67
2023/08/05 01:30:51;;;;;;;3.80;2.45;;;17.60;57.30;;;;;;5056642;28;20021;-68
2023/08/05 01:33:19;;;;;;;5.35;2.88;;;17.60;57.30;;;;;;5056674;28;20021;-67
2023/08/05 01:35:50;;;;;;;4.93;3.22;;;17.50;57.50;;;;;;5056680;28;20108;-67
2023/08/05 01:38:17;;;;;;;5.50;3.38;;;17.60;57.40;;;;;;5072074;28;20025;-67
2023/08/05 01:40:46;;;;;;;5.60;3.03;;;17.50;57.60;;;;;;5056634;28;20112;-63
2023/08/05 01:43:13;;;;;;;5.53;2.70;;;17.50;57.50;;;;;;5072085;28;20036;-64
2023/08/05 01:45:41;;;;;;;4.97;3.28;;;17.50;57.70;;;;;;5072135;28;20025;-64
2023/08/05 01:48:08;;;;;;;4.68;3.28;;;17.50;57.80;;;;;;5056620;28;20024;-62
2023/08/05 01:50:36;;;;;;;7.75;3.70;;;17.50;57.60;;;;;;5072156;28;20508;-67
2023/08/05 01:53:04;;;;;;;6.65;3.50;;;17.50;57.80;;;;;;5056104;28;20044;-67
2023/08/05 01:55:31;;;;;;;7.22;3.40;;;17.60;58.10;;;;;;5055995;28;20032;-63
2023/08/05 01:57:59;;;;;;;7.53;3.38;;;17.60;57.50;;;;;;5071640;28;20355;-63
2023/08/05 02:00:26;;;;;;;7.80;3.55;;;17.50;58.40;;;;;;5071749;28;20024;-64
2023/08/05 02:02:54;;;;;;;6.80;3.83;;;17.50;58.00;;;;;;5056200;28;20032;-63
2023/08/05 02:05:21;;;;;;;7.15;3.42;;;17.50;58.70;;;;;;5055703;28;20032;-63
2023/08/05 02:07:49;;;;;;;6.10;3.47;;;17.60;58.30;;;;;;5055936;28;20121;-63
2023/08/05 02:10:16;;;;;;;6.43;3.45;;;17.50;58.00;;;;;;5071442;28;20033;-63
2023/08/05 02:12:44;;;;;;;13.38;4.18;;;17.60;58.30;;;;;;5071553;28;20359;-63
2023/08/05 02:15:11;;;;;;;7.45;3.85;;;17.60;58.20;;;;;;5055809;28;20020;-63
2023/08/05 02:17:39;;;;;;;6.88;3.20;;;17.60;57.80;;;;;;5055584;28;20354;-64
2023/08/05 02:20:08;;;;;;;8.02;3.83;;;17.50;58.40;;;;;;5055681;28;20028;-63
2023/08/05 02:22:35;;;;;;;8.00;3.10;;;17.60;57.90;;;;;;5071324;28;20067;-63
2023/08/05 02:25:03;;;;;;;10.90;3.30;;;17.60;57.70;;;;;;5071253;28;20364;-63
2023/08/05 02:27:30;;;;;;;7.07;3.38;;;17.70;57.30;;;;;;5055758;28;20343;-63
2023/08/05 02:29:58;;;;;;;7.28;3.22;;;17.60;57.50;;;;;;5055618;28;20054;-67
2023/08/05 02:32:25;;;;;;;8.50;3.65;;;17.60;57.50;;;;;;5071062;28;20036;-67
2023/08/05 02:34:53;;;;;;;5.63;3.00;;;17.70;57.40;;;;;;5071162;28;20021;-62
2023/08/05 02:37:20;;;;;;;5.68;3.63;;;17.60;57.40;;;;;;5055145;28;20032;-63
2023/08/05 02:39:48;;;;;;;4.70;2.95;;;17.60;57.50;;;;;;5070920;28;20066;-63
2023/08/05 02:42:16;;;;;;;5.85;3.13;;;17.70;57.10;;;;;;5055151;28;20025;-62
2023/08/05 02:44:43;;;;;;;5.35;3.17;;;17.70;57.00;;;;;;5054886;28;20052;-61
2023/08/05 02:47:11;;;;;;;5.63;3.10;;;17.70;57.30;;;;;;5054892;28;20021;-62
2023/08/05 02:49:38;;;;;;;6.22;3.15;;;17.80;57.70;;;;;;5070667;28;20031;-62
2023/08/05 02:52:06;;;;;;;5.00;3.03;;;17.90;57.20;;;;;;5054944;28;20107;-62
2023/08/05 02:54:33;;;;;;;4.80;3.05;;;18.10;57.30;;;;;;5070616;28;20024;-61
2023/08/05 02:57:01;;;;;;;5.43;3.17;;;18.00;56.80;;;;;;5070440;28;20115;-62
2023/08/05 02:59:29;;;;;;;6.25;3.08;;;18.10;57.00;;;;;;5070713;28;20360;-66
2023/08/05 03:01:56;;;;;;;6.13;3.38;;;18.10;56.90;;;;;;5070710;28;20025;-65
2023/08/05 03:04:24;;;;;;;4.60;2.75;;;18.20;57.00;;;;;;5055159;28;20394;-65
2023/08/05 03:06:52;;;;;;;4.18;2.72;;;18.30;57.00;;;;;;5054081;28;20799;-65
2023/08/05 03:09:19;;;;;;;5.00;3.17;;;18.40;57.10;;;;;;5054976;28;20039;-65
2023/08/05 03:11:48;;;;;;;6.63;2.80;;;18.40;56.60;;;;;;5055046;28;20427;-66
2023/08/05 03:14:16;;;;;;;5.45;2.72;;;18.50;57.00;;;;;;5070707;28;20044;-66
2023/08/05 03:16:43;;;;;;;4.78;2.83;;;18.60;57.20;;;;;;5055021;28;20354;-65
2023/08/05 03:19:11;;;;;;;6.82;3.13;;;18.70;55.90;;;;;;5054899;28;20039;-65
2023/08/05 03:21:38;;;;;;;4.68;3.05;;;18.80;55.40;;;;;;5070582;28;20032;-65
2023/08/05 03:24:06;;;;;;;6.78;3.33;;;18.70;56.30;;;;;;5070574;28;20024;-66
2023/08/05 03:26:33;;;;;;;7.07;3.20;;;18.60;56.60;;;;;;5070368;28;20017;-65
2023/08/05 03:29:01;;;;;;;5.30;2.72;;;18.50;56.50;;;;;;5070418;28;20478;-65
2023/08/05 03:31:30;;;;;;;5.28;3.15;;;18.50;56.80;;;;;;5070364;28;20033;-65
2023/08/05 03:33:57;;;;;;;5.88;3.25;;;18.50;57.20;;;;;;5070363;28;20052;-65
2023/08/05 03:36:25;;;;;;;5.20;3.25;;;18.40;57.00;;;;;;5054721;28;20021;-65
2023/08/05 03:38:52;;;;;;;4.90;3.42;;;18.40;57.40;;;;;;5053574;28;20033;-65
2023/08/05 03:41:20;;;;;;;7.45;3.65;;;18.40;57.10;;;;;;5070300;28;20025;-65
2023/08/05 03:43:47;;;;;;;9.48;3.50;;;18.40;56.80;;;;;;5070345;28;20029;-65
2023/08/05 03:46:15;;;;;;;6.07;3.22;;;18.50;56.70;;;;;;5054591;28;20048;-65
2023/08/05 03:48:42;;;;;;;8.65;3.95;;;18.40;57.30;;;;;;5054476;28;20036;-66
2023/08/05 03:51:10;;;;;;;7.45;3.67;;;18.30;57.10;;;;;;5054399;28;20440;-65
2023/08/05 03:53:37;;;;;;;5.75;3.70;;;18.20;57.50;;;;;;5070099;28;20040;-65
2023/08/05 03:56:06;;;;;;;5.55;3.67;;;18.20;58.50;;;;;;5070016;28;20021;-65
2023/08/05 03:58:34;;;;;;;7.00;3.85;;;18.20;58.30;;;;;;5069797;28;20036;-66
2023/08/05 04:01:02;;;;;;;5.72;3.90;;;18.20;58.50;;;;;;5054457;28;20384;-66
2023/08/05 04:03:30;;;;;;;6.10;3.78;;;18.10;58.00;;;;;;5070067;28;20074;-66
2023/08/05 04:05:58;;;;;;;6.68;3.97;;;18.20;58.60;;;;;;5069893;28;20052;-66
2023/08/05 04:08:26;;;;;;;7.80;4.38;;;18.10;59.70;;;;;;5070001;28;20033;-65
2023/08/05 04:10:53;;;;;;;7.40;3.95;;;18.10;60.60;;;;;;5070119;28;20025;-66
2023/08/05 04:13:24;;;;;;;7.05;4.25;;;18.10;61.40;;;;;;5054410;28;20530;-66
2023/08/05 04:15:53;;;;;;;9.35;4.40;;;18.10;62.50;;;;;;5054538;28;20107;-65
2023/08/05 04:18:21;;;;;;;8.00;4.75;;;18.00;62.90;;;;;;5073504;28;20517;-62
2023/08/05 04:20:50;;;;;;;6.28;3.90;;;18.00;61.30;;;;;;5074375;28;20075;-67
2023/08/05 04:23:21;;;;;;;7.10;4.70;;;18.00;63.60;;;;;;5074285;28;20025;-61
2023/08/05 04:25:48;;;;;;;8.15;4.57;;;17.90;65.00;;;;;;5058394;28;20063;-65
2023/08/05 04:28:16;;;;;;;9.48;4.45;;;17.90;66.10;;;;;;5058090;28;20024;-65
2023/08/05 04:30:43;;;;;;;7.10;4.55;;;17.90;66.10;;;;;;5073764;28;20074;-66
2023/08/05 04:33:11;;;;;;;8.45;4.55;;;18.00;66.30;;;;;;5073815;28;20025;-66
2023/08/05 04:35:38;;;;;;;9.48;4.75;;;17.90;67.20;;;;;;5073675;28;20021;-66
2023/08/05 04:38:06;;;;;;;7.95;4.45;;;17.80;67.90;;;;;;5057651;28;20347;-67
2023/08/05 04:40:33;;;;;;;5.93;4.43;;;17.70;67.50;;;;;;5058063;28;20013;-64
2023/08/05 04:43:02;;;;;;;6.95;4.70;;;17.70;68.70;;;;;;5057794;28;20048;-61
2023/08/05 04:45:30;;;;;;;8.52;4.70;;;17.60;68.60;;;;;;5073667;28;20021;-64
2023/08/05 04:47:57;;;;;;;6.65;4.40;;;17.70;68.10;;;;;;5073323;28;20029;-66
2023/08/05 04:50:25;;;;;;;7.85;4.18;;;17.50;68.90;;;;;;5073370;28;20116;-66
2023/08/05 04:52:52;;;;;;;8.32;4.40;;;17.40;69.30;;;;;;5073249;28;20035;-66
2023/08/05 04:55:20;;;;;;;7.18;4.70;;;17.40;69.60;;;;;;5057547;28;20392;-66
2023/08/05 04:57:52;;;;;;;7.18;4.43;;;17.30;70.50;;;;;;5057318;28;20028;-66
2023/08/05 05:00:20;;;;;;;7.30;4.10;;;17.20;70.70;;;;;;5057423;28;20489;-66
2023/08/05 05:02:49;;;;;;;7.47;4.55;;;17.20;70.10;;;;;;5072370;28;20029;-66
2023/08/05 05:05:16;;;;;;;8.50;4.57;;;17.20;70.90;;;;;;5056992;28;20021;-66
2023/08/05 05:07:44;;;;;;;6.70;4.72;;;17.10;70.70;;;;;;5057203;28;20025;-67
2023/08/05 05:10:11;;;;;;;8.52;5.03;;;17.10;71.20;;;;;;5057480;28;20017;-65
2023/08/05 05:12:39;;;;;;;7.38;4.50;;;17.10;71.70;;;;;;5057111;28;20417;-66
2023/08/05 05:15:06;;;;;;;7.20;4.65;;;17.10;72.00;;;;;;5072562;28;20025;-66
2023/08/05 05:17:35;;;;;;;7.40;4.55;;;17.10;72.50;;;;;;5056943;28;20359;-66
2023/08/05 05:20:06;;;;;;;8.38;5.30;;;17.20;72.50;;;;;;5056951;28;20017;-67
2023/08/05 05:22:34;;;;;;;13.13;6.57;;;17.20;72.20;;;;;;5072393;28;20045;-66
2023/08/05 05:25:02;;;;;;;10.98;6.70;;;17.20;72.00;;;;;;5072576;28;20100;-66
2023/08/05 05:27:29;;;;;;;10.52;7.15;;;17.10;72.80;;;;;;5056862;28;20017;-66
2023/08/05 05:29:57;;;;;;;12.18;8.32;;;17.10;72.50;;;;;;5071745;28;20025;-65
2023/08/05 05:32:24;;;;;;;12.35;7.45;;;17.30;71.70;;;;;;5072267;28;20036;-68
2023/08/05 05:34:52;;;;;;;10.32;5.90;;;17.40;71.70;;;;;;5072507;28;20024;-67
2023/08/05 05:37:20;;;;;;;9.18;5.43;;;17.40;70.80;;;;;;5072123;28;20036;-70
2023/08/05 05:39:47;;;;;;;11.15;5.40;;;17.50;70.60;;;;;;5056566;28;20075;-70
2023/08/05 05:42:15;;;;;;;8.50;4.85;;;17.50;71.50;;;;;;5056596;28;20021;-69
2023/08/05 05:44:47;;;;;;;8.55;5.10;;;17.50;71.60;;;;;;5056435;28;20024;-69
2023/08/05 05:47:15;;;;;;;8.88;5.47;;;17.40;71.10;;;;;;5056457;28;20032;-69
2023/08/05 05:49:43;;;;;;;8.35;5.53;;;17.30;72.00;;;;;;5072081;28;20060;-69
2023/08/05 05:52:13;;;;;;;7.93;4.53;;;17.30;71.30;;;;;;5056276;28;20393;-69
2023/08/05 05:54:40;;;;;;;8.75;5.25;;;17.20;70.10;;;;;;5056317;28;20029;-70
2023/08/05 05:57:09;;;;;;;9.13;5.35;;;17.20;71.20;;;;;;5056131;28;20052;-69
2023/08/05 05:59:37;;;;;;;8.68;5.30;;;17.20;72.60;;;;;;5071739;28;20029;-70
2023/08/05 06:02:08;;;;;;;9.68;6.05;;;17.10;72.90;;;;;;5071853;28;20214;-69
2023/08/05 06:04:36;;;;;;;9.57;6.18;;;17.10;72.30;;;;;;5071737;28;20091;-69
2023/08/05 06:07:03;;;;;;;12.35;6.60;;;17.10;72.60;;;;;;5071326;28;20041;-70
2023/08/05 06:09:32;;;;;;;8.50;5.85;;;17.10;73.00;;;;;;5055764;28;20416;-69
2023/08/05 06:12:00;;;;;;;7.55;5.00;;;17.10;72.00;;;;;;5071421;28;20071;-69
2023/08/05 06:14:31;;;;;;;8.68;5.78;;;17.10;71.60;;;;;;5055841;28;20021;-69
2023/08/05 06:16:58;;;;;;;9.07;5.43;;;17.20;71.90;;;;;;5071343;28;20124;-69
2023/08/05 06:19:26;;;;;;;9.73;6.03;;;17.30;71.90;;;;;;5071463;28;20039;-69
2023/08/05 06:21:54;;;;;;;10.82;5.95;;;17.30;71.60;;;;;;5055794;28;20024;-69
2023/08/05 06:24:22;;;;;;;9.95;5.40;;;17.20;71.70;;;;;;5055415;28;20044;-67
2023/08/05 06:26:49;;;;;;;10.82;5.95;;;17.20;72.70;;;;;;5070247;28;20528;-67
2023/08/05 06:29:17;;;;;;;11.63;5.88;;;17.10;72.40;;;;;;5055569;28;20408;-67
2023/08/05 06:31:44;;;;;;;11.75;6.47;;;17.10;72.90;;;;;;5055646;28;20021;-67
2023/08/05 06:34:14;;;;;;;9.55;5.43;;;17.10;72.10;;;;;;5054501;28;20024;-63
2023/08/05 06:36:41;;;;;;;7.05;5.40;;;17.00;72.00;;;;;;5054886;28;20025;-66
2023/08/05 06:39:09;;;;;;;10.40;5.75;;;17.00;71.60;;;;;;5054167;28;20025;-66
2023/08/05 06:41:36;;;;;;;9.95;5.65;;;17.00;70.80;;;;;;5055213;28;20020;-65
2023/08/05 06:44:03;;;;;;;7.40;5.10;;;17.00;71.00;;;;;;5054967;28;20377;-65
2023/08/05 06:46:31;;;;;;;8.82;5.30;;;16.90;74.00;;;;;;5055011;28;20386;-65
2023/08/05 06:48:59;;;;;;;9.20;5.00;;;16.80;73.70;;;;;;5054195;28;20035;-66
2023/08/05 06:51:27;;;;;;;8.80;5.40;;;16.60;74.80;;;;;;5054282;28;20025;-65
2023/08/05 06:53:55;;;;;;;7.15;4.97;;;16.50;75.30;;;;;;5054398;28;20067;-65
2023/08/05 06:56:22;;;;;;;8.77;5.53;;;16.40;75.90;;;;;;5053893;28;20021;-65
2023/08/05 06:58:50;;;;;;;7.13;4.70;;;16.40;76.50;;;;;;5054174;28;20025;-65
2023/08/05 07:01:18;;;;;;;7.80;4.63;;;16.30;76.60;;;;;;5054240;28;20116;-65
2023/08/05 07:03:45;;;;;;;7.50;5.80;;;16.30;77.20;;;;;;5054230;28;20183;-65
2023/08/05 07:06:13;;;;;;;9.32;5.30;;;16.30;76.40;;;;;;5055077;28;20162;-66
2023/08/05 07:08:40;;;;;;;9.05;6.22;;;16.30;77.80;;;;;;5054027;28;20036;-66
2023/08/05 07:11:11;;;;;;;9.30;6.10;;;16.30;78.20;;;;;;5054028;28;20406;-66
2023/08/05 07:13:38;;;;;;;11.00;7.10;;;16.10;76.30;;;;;;5054917;28;20025;-66
2023/08/05 07:16:07;;;;;;;11.57;6.53;;;16.20;76.00;;;;;;5053780;28;20035;-65
2023/08/05 07:18:35;;;;;;;12.68;6.70;;;16.10;74.40;;;;;;5053626;28;20025;-66
2023/08/05 07:21:02;;;;;;;10.00;6.68;;;16.10;73.70;;;;;;5053775;28;20032;-66
2023/08/05 07:23:29;;;;;;;10.68;6.47;;;16.20;73.80;;;;;;5054792;28;20017;-66
2023/08/05 07:26:01;;;;;;;9.63;6.43;;;16.10;74.00;;;;;;5053753;28;20399;-66
2023/08/05 07:28:29;;;;;;;8.23;6.00;;;16.10;74.60;;;;;;5037497;28;20033;-65
2023/08/05 07:31:10;;;;;;;11.93;6.40;;;16.00;76.30;;;;;;5053859;28;20033;-65
2023/08/05 07:33:38;;;;;;;9.95;5.78;;;15.90;77.00;;;;;;5054671;28;20060;-65
2023/08/05 07:36:11;;;;;;;8.95;5.97;;;15.80;77.30;;;;;;5053673;28;20033;-65
2023/08/05 07:38:40;;;;;;;10.18;5.60;;;15.80;77.40;;;;;;5053634;28;20049;-65
2023/08/05 07:41:08;;;;;;;9.30;5.75;;;15.80;77.60;;;;;;5053656;28;20032;-66
2023/08/05 07:43:36;;;;;;;10.60;6.75;;;15.70;77.20;;;;;;5054587;28;20025;-66
2023/08/05 07:46:05;;;;;;;9.40;6.05;;;15.70;76.60;;;;;;5053604;28;20112;-66
2023/08/05 07:48:37;;;;;;;12.00;5.72;;;15.70;76.00;;;;;;5054331;28;20033;-64
2023/08/05 07:51:06;;;;;;;8.85;6.15;;;15.80;75.50;;;;;;5053909;28;20067;-64
2023/08/05 07:53:37;;;;;;;10.55;6.35;;;15.80;75.40;;;;;;5056593;28;20040;-65
2023/08/05 07:56:12;;;;;;;11.35;6.93;;;15.80;75.80;;;;;;5057805;28;20028;-66
2023/08/05 07:58:42;;;;;;;10.98;6.25;;;15.80;75.10;;;;;;5057432;28;20025;-65
2023/08/05 08:01:13;;;;;;;13.90;6.90;;;15.80;75.00;;;;;;5058449;28;20025;-66
2023/08/05 08:03:42;;;;;;;13.93;7.20;;;15.70;76.60;;;;;;5058657;28;20131;-66
2023/08/05 08:06:14;;;;;;;11.25;6.70;;;15.60;76.60;;;;;;5058315;28;20032;-66
2023/08/05 08:08:45;;;;;;;11.52;6.28;;;15.60;77.20;;;;;;5057463;28;20033;-66
2023/08/05 08:11:13;;;;;;;10.80;6.82;;;15.60;76.60;;;;;;5058396;28;20029;-66
2023/08/05 08:13:41;;;;;;;13.10;6.68;;;15.60;76.10;;;;;;5058322;28;20029;-66
2023/08/05 08:16:08;;;;;;;12.57;7.07;;;15.60;75.40;;;;;;5058300;28;20462;-65
2023/08/05 08:18:36;;;;;;;12.98;7.80;;;15.70;75.20;;;;;;5058010;28;20448;-65
2023/08/05 08:21:06;;;;;;;14.02;7.95;;;15.70;75.30;;;;;;5057207;28;20021;-66
2023/08/05 08:23:34;;;;;;;11.45;7.90;;;15.70;75.80;;;;;;5058073;28;20079;-65
2023/08/05 08:26:02;;;;;;;12.07;7.53;;;15.80;75.90;;;;;;5058099;28;20017;-66
2023/08/05 08:28:29;;;;;;;12.55;7.72;;;15.70;76.10;;;;;;5057925;28;20024;-66
2023/08/05 08:30:58;;;;;;;13.70;7.88;;;15.70;76.30;;;;;;5056670;28;20143;-66
2023/08/05 08:33:27;;;;;;;12.98;8.10;;;15.70;76.50;;;;;;5056680;28;20087;-66
2023/08/05 08:35:55;;;;;;;12.30;7.60;;;15.70;76.40;;;;;;5056975;28;20060;-66
2023/08/05 08:38:23;;;;;;;11.02;7.57;;;15.70;76.50;;;;;;5057635;28;20045;-66
2023/08/05 08:40:53;;;;;;;13.55;8.07;;;15.70;76.60;;;;;;5057055;28;20048;-66
2023/08/05 08:43:21;;;;;;;18.52;9.25;;;15.60;76.90;;;;;;5057714;28;20447;-66
2023/08/05 08:45:52;;;;;;;12.10;8.68;;;15.60;77.00;;;;;;5056810;28;20032;-67
2023/08/05 08:48:20;;;;;;;14.73;7.95;;;15.50;77.10;;;;;;5056547;28;20024;-71
2023/08/05 08:50:48;;;;;;;12.98;7.90;;;15.50;77.90;;;;;;5056637;28;20036;-70
2023/08/05 08:53:16;;;;;;;13.10;6.88;;;15.40;78.80;;;;;;5057642;28;20151;-69
2023/08/05 08:55:44;;;;;;;11.85;6.95;;;15.20;79.30;;;;;;5056644;28;20053;-69
2023/08/05 08:58:14;;;;;;;10.50;7.07;;;15.00;80.10;;;;;;5056390;28;20104;-69
2023/08/05 09:00:42;;;;;;;11.70;7.55;;;15.00;80.00;;;;;;5056623;28;20036;-70
2023/08/05 09:03:11;;;;;;;13.60;7.60;;;15.00;79.80;;;;;;5055921;28;20021;-69
2023/08/05 09:05:46;;;;;;;13.15;8.73;;;15.10;79.60;;;;;;5055672;28;20065;-69
2023/08/05 09:08:13;;;;;;;15.07;8.57;;;15.10;79.50;;;;;;5056380;28;20114;-69
2023/08/05 09:10:43;;;;;;;11.52;8.07;;;15.10;79.40;;;;;;5057720;28;20029;-69
2023/08/05 09:13:12;;;;;;;12.35;8.38;;;15.20;79.40;;;;;;5056359;28;20036;-71
2023/08/05 09:15:40;;;;;;;14.45;8.18;;;15.10;79.40;;;;;;5057274;28;20025;-70
2023/08/05 09:18:09;;;;;;;14.00;8.15;;;15.20;79.30;;;;;;5055994;28;20036;-70
2023/08/05 09:20:37;;;;;;;11.93;8.15;;;15.20;79.30;;;;;;5056073;28;20055;-70
2023/08/05 09:23:10;;;;;;;19.92;9.73;;;15.20;79.60;;;;;;5056070;28;20028;-69
2023/08/05 09:25:48;;;;;;;16.25;10.23;;;15.20;80.50;;;;;;5055963;28;20028;-68
2023/08/05 09:28:30;;;;;;;18.38;9.63;;;15.20;81.30;;;;;;5055979;28;20029;-69
2023/08/05 09:31:14;;;;;;;16.00;9.98;;;15.20;81.90;;;;;;5055969;28;20021;-71
2023/08/05 09:33:43;;;;;;;16.85;10.75;;;15.10;83.30;;;;;;5055899;28;20036;-71
2023/08/05 09:36:12;;;;;;;16.67;11.23;;;15.00;84.10;;;;;;5039489;28;20363;-71
2023/08/05 09:38:45;;;;;;;18.35;11.50;;;15.00;84.70;;;;;;5055806;28;20071;-74
2023/08/05 09:41:12;;;;;;;17.55;11.10;;;14.70;86.40;;;;;;5055767;28;20435;-72
2023/08/05 09:43:50;;;;;;;20.25;12.88;;;14.60;87.40;;;;;;5056693;28;20100;-74
2023/08/05 09:46:20;;;;;;;17.20;12.73;;;14.50;87.70;;;;;;5056683;28;20017;-74
2023/08/05 09:48:47;;;;;;;18.48;12.27;;;14.40;88.40;;;;;;5056631;28;20029;-74
2023/08/05 09:51:16;;;;;;;21.02;12.45;;;14.40;88.60;;;;;;5056540;28;20064;-74
2023/08/05 09:53:49;;;;;;;18.60;12.30;;;14.50;89.00;;;;;;5056619;28;20485;-73
2023/08/05 09:56:20;;;;;;;20.42;13.18;;;14.40;89.00;;;;;;5056520;28;20086;-73
2023/08/05 09:58:52;;;;;;;20.65;15.02;;;14.40;89.00;;;;;;5056309;28;20025;-73
2023/08/05 10:01:21;;;;;;;24.52;16.08;;;14.40;89.00;;;;;;5056365;28;20410;-74
2023/08/05 10:03:50;;;;;;;21.00;13.07;;;14.40;89.30;;;;;;5056345;28;20387;-73
2023/08/05 10:06:18;;;;;;;18.25;13.50;;;14.40;89.30;;;;;;5055207;28;20098;-72
2023/08/05 10:08:48;;;;;;;20.88;13.52;;;14.30;89.60;;;;;;5056106;28;20036;-73
2023/08/05 10:11:16;;;;;;;23.52;13.55;;;14.40;89.60;;;;;;5055166;28;20048;-73
2023/08/05 10:13:47;;;;;;;20.35;13.02;;;14.40;89.80;;;;;;5056243;28;20494;-74
2023/08/05 10:16:15;;;;;;;20.88;13.85;;;14.30;90.10;;;;;;5054829;28;20051;-73
2023/08/05 10:18:42;;;;;;;22.88;13.55;;;14.30;89.90;;;;;;5055900;28;20021;-72
2023/08/05 10:21:10;;;;;;;21.67;14.57;;;14.30;89.90;;;;;;5056035;28;20025;-74
2023/08/05 10:23:37;;;;;;;21.58;14.45;;;14.20;90.10;;;;;;5055967;28;20013;-73
2023/08/05 10:26:06;;;;;;;26.63;15.55;;;14.20;90.50;;;;;;5055988;28;20017;-73
2023/08/05 10:28:40;;;;;;;22.73;15.77;;;14.10;90.40;;;;;;5055821;28;20095;-72
2023/08/05 10:31:25;;;;;;;25.48;15.40;;;14.00;90.60;;;;;;5055872;28;20017;-73
2023/08/05 10:34:17;;;;;;;22.20;14.18;;;14.00;91.00;;;;;;5054838;28;20039;-73
2023/08/05 10:36:49;;;;;;;21.77;14.65;;;14.00;91.00;;;;;;5054719;28;20059;-73
2023/08/05 10:39:45;;;;;;;25.67;14.93;;;14.00;91.10;;;;;;5054665;28;20514;-72
2023/08/05 10:42:34;;;;;;;22.88;15.98;;;14.00;91.20;;;;;;5042210;28;20041;-73
2023/08/05 10:45:05;;;;;;;25.55;16.35;;;14.00;91.20;;;;;;5054625;28;20374;-72
2023/08/05 10:47:33;;;;;;;26.38;16.13;;;14.00;91.40;;;;;;5054485;28;20025;-72
2023/08/05 10:50:02;;;;;;;29.02;20.25;;;13.90;91.50;;;;;;5054398;28;20021;-72
2023/08/05 10:52:30;;;;;;;35.63;22.65;;;13.90;91.90;;;;;;5054339;28;20025;-72
2023/08/05 10:54:58;;;;;;;29.50;18.20;;;14.00;91.90;;;;;;5054410;28;20025;-73
2023/08/05 10:57:35;;;;;;;26.38;17.67;;;14.00;91.70;;;;;;5054294;28;20040;-73
2023/08/05 11:00:07;;;;;;;38.63;26.63;;;14.00;91.40;;;;;;5055277;28;20477;-73
2023/08/05 11:02:37;;;;;;;36.72;25.45;;;13.90;91.50;;;;;;5055277;28;20483;-73
2023/08/05 11:05:09;;;;;;;33.05;21.70;;;13.90;91.60;;;;;;5054037;28;20029;-73
2023/08/05 11:07:42;;;;;;;30.20;21.48;;;14.00;91.90;;;;;;5054053;28;20036;-73
2023/08/05 11:10:11;;;;;;;25.55;19.15;;;14.00;91.80;;;;;;5054038;28;20151;-73
2023/08/05 11:12:40;;;;;;;25.95;17.23;;;14.00;91.70;;;;;;5055211;28;20017;-73
2023/08/05 11:15:09;;;;;;;23.20;15.98;;;14.00;91.60;;;;;;5055059;28;20045;-73
2023/08/05 11:17:54;;;;;;;25.30;15.63;;;14.00;91.30;;;;;;5053958;28;20112;-73
2023/08/05 11:20:31;;;;;;;22.25;15.95;;;14.00;91.60;;;;;;5054026;28;20021;-74
2023/08/05 11:23:00;;;;;;;20.50;15.55;;;14.00;91.80;;;;;;5053934;28;20021;-73
2023/08/05 11:25:29;;;;;;;27.15;16.20;;;14.00;91.80;;;;;;5054853;28;20020;-73
2023/08/05 11:27:56;;;;;;;21.80;16.35;;;14.10;91.90;;;;;;5054185;28;20100;-72
2023/08/05 11:30:24;;;;;;;23.83;15.15;;;14.10;91.80;;;;;;5054896;28;20031;-73
2023/08/05 11:32:59;;;;;;;21.98;14.52;;;14.20;91.60;;;;;;5054922;28;20047;-73
2023/08/05 11:35:27;;;;;;;21.20;14.05;;;14.20;91.60;;;;;;5054851;28;20025;-73
2023/08/05 11:37:56;;;;;;;21.35;13.43;;;14.20;91.40;;;;;;5054668;28;20032;-74
2023/08/05 11:40:25;;;;;;;18.52;12.45;;;14.30;91.10;;;;;;5053881;28;20022;-73
2023/08/05 11:42:53;;;;;;;23.13;12.60;;;14.40;91.00;;;;;;5054745;28;20320;-71
2023/08/05 11:45:20;;;;;;;15.05;10.45;;;14.40;90.80;;;;;;5054619;28;20027;-72
2023/08/05 11:47:48;;;;;;;16.20;10.60;;;14.50;90.60;;;;;;5053722;28;20026;-71
2023/08/05 11:50:15;;;;;;;19.23;11.13;;;14.40;90.50;;;;;;5054762;28;20021;-73
2023/08/05 11:52:43;;;;;;;17.05;11.30;;;14.40;90.80;;;;;;5053705;28;20443;-72
2023/08/05 11:55:11;;;;;;;21.83;11.10;;;14.40;90.70;;;;;;5054815;28;20096;-73
2023/08/05 11:57:39;;;;;;;19.35;11.13;;;14.40;90.80;;;;;;5053394;28;20069;-73
2023/08/05 12:00:09;;;;;;;12.20;8.57;;;14.40;90.90;;;;;;5053729;28;20028;-72
2023/08/05 12:02:38;;;;;;;12.07;7.10;;;14.40;91.00;;;;;;5053751;28;20017;-72
2023/08/05 12:05:06;;;;;;;11.00;6.07;;;14.50;91.00;;;;;;5053396;28;20066;-72
2023/08/05 12:07:40;;;;;;;10.50;5.75;;;14.50;91.10;;;;;;5054646;28;20056;-72
2023/08/05 12:10:13;;;;;;;8.95;5.78;;;14.50;91.10;;;;;;5053681;28;20021;-72
2023/08/05 12:12:45;;;;;;;11.95;5.20;;;14.50;91.00;;;;;;5054752;28;20104;-72
2023/08/05 12:15:29;;;;;;;12.57;5.32;;;14.50;91.10;;;;;;5053703;28;20033;-72
2023/08/05 12:17:58;;;;;;;12.55;7.68;;;14.50;91.10;;;;;;5053456;28;20044;-72
2023/08/05 12:20:36;;;;;;;18.52;10.70;;;14.50;91.10;;;;;;5053496;28;20116;-73
2023/08/05 12:23:06;;;;;;;16.85;10.18;;;14.50;91.60;;;;;;5053551;28;20504;-72
2023/08/05 12:25:34;;;;;;;15.68;8.82;;;14.40;91.40;;;;;;5054537;28;20025;-71
2023/08/05 12:28:02;;;;;;;17.48;8.00;;;14.30;91.80;;;;;;5053473;28;20029;-72
2023/08/05 12:30:29;;;;;;;15.73;8.32;;;14.30;91.90;;;;;;5054430;28;20025;-71
2023/08/05 12:32:58;;;;;;;14.55;7.55;;;14.30;91.90;;;;;;5054493;28;20033;-72
2023/08/05 12:35:26;;;;;;;14.48;7.78;;;14.30;91.90;;;;;;5054429;28;20029;-72
2023/08/05 12:37:54;;;;;;;16.08;6.65;;;14.40;91.90;;;;;;5054605;28;20104;-72
2023/08/05 12:40:21;;;;;;;12.68;6.90;;;14.30;91.70;;;;;;5058019;28;20099;-71
2023/08/05 12:42:49;;;;;;;13.82;6.88;;;14.20;91.70;;;;;;5057064;28;20087;-71
2023/08/05 12:45:17;;;;;;;15.88;9.40;;;14.10;91.60;;;;;;5057002;28;20049;-72
2023/08/05 12:47:45;;;;;;;18.42;11.85;;;14.10;91.50;;;;;;5057877;28;20024;-68
2023/08/05 12:50:12;;;;;;;17.15;11.50;;;14.00;91.60;;;;;;5056886;28;20021;-68